sensor_id;sensor_type;location;lat;lon;timestamp;pressure;altitude;pressure_sealevel;temperature;humidity
68594;BME280;55563;52.416;13.548;2023-01-15T00:01:04;99399.22;;;7.82;100.00
68594;BME280;55563;52.416;13.548;2023-01-15T00:03:05;99395.56;;;7.78;100.00
68594;BME280;55563;52.416;13.548;2023-01-15T00:05:05;99389.75;;;7.86;100.00
68594;BME280;55563;52.416;13.548;2023-01-15T00:07:06;99406.50;;;7.91;100.00
68594;BME280;55563;52.416;13.548;2023-01-15T00:09:09;99391.59;;;7.91;100.00
68594;BME280;55563;52.416;13.548;2023-01-15T00:11:14;99402.81;;;7.92;100.00
68594;BME280;55563;52.416;13.548;2023-01-15T00:13:15;99394.47;;;7.89;100.00
68594;BME280;55563;52.416;13.548;2023-01-15T00:15:15;99387.94;;;7.87;100.00
68594;BME280;55563;52.416;13.548;2023-01-15T00:17:16;99379.81;;;7.88;100.00
68594;BME280;55563;52.416;13.548;2023-01-15T00:19:17;99381.91;;;7.86;100.00
68594;BME280;55563;52.416;13.548;2023-01-15T00:21:18;99384.25;;;7.93;100.00
68594;BME280;55563;52.416;13.548;2023-01-15T00:23:20;99378.78;;;7.89;100.00
68594;BME280;55563;52.416;13.548;2023-01-15T00:25:40;99380.84;;;7.93;100.00
68594;BME280;55563;52.416;13.548;2023-01-15T00:28:01;99388.91;;;7.96;100.00
68594;BME280;55563;52.416;13.548;2023-01-15T00:30:02;99382.16;;;7.95;100.00
68594;BME280;55563;52.416;13.548;2023-01-15T00:32:05;99385.53;;;8.01;100.00
68594;BME280;55563;52.416;13.548;2023-01-15T00:34:06;99383.16;;;7.99;100.00
68594;BME280;55563;52.416;13.548;2023-01-15T00:36:07;99386.53;;;8.05;100.00
68594;BME280;55563;52.416;13.548;2023-01-15T00:38:07;99384.94;;;8.09;100.00
68594;BME280;55563;52.416;13.548;2023-01-15T00:40:08;99374.28;;;8.00;100.00
68594;BME280;55563;52.416;13.548;2023-01-15T00:42:10;99364.00;;;8.09;100.00
68594;BME280;55563;52.416;13.548;2023-01-15T00:44:11;99354.34;;;8.04;100.00
68594;BME280;55563;52.416;13.548;2023-01-15T00:46:12;99356.41;;;8.07;100.00
68594;BME280;55563;52.416;13.548;2023-01-15T00:48:12;99344.94;;;8.03;100.00
68594;BME280;55563;52.416;13.548;2023-01-15T00:50:14;99343.56;;;8.11;100.00
68594;BME280;55563;52.416;13.548;2023-01-15T00:52:14;99332.88;;;8.07;100.00
68594;BME280;55563;52.416;13.548;2023-01-15T00:54:16;99334.16;;;8.10;100.00
68594;BME280;55563;52.416;13.548;2023-01-15T00:56:16;99331.47;;;8.20;100.00
68594;BME280;55563;52.416;13.548;2023-01-15T00:58:17;99336.63;;;8.25;100.00
68594;BME280;55563;52.416;13.548;2023-01-15T01:00:18;99340.81;;;8.31;100.00
68594;BME280;55563;52.416;13.548;2023-01-15T01:02:20;99336.16;;;8.23;100.00
68594;BME280;55563;52.416;13.548;2023-01-15T01:04:20;99342.91;;;8.29;100.00
68594;BME280;55563;52.416;13.548;2023-01-15T01:06:21;99329.56;;;8.25;100.00
68594;BME280;55563;52.416;13.548;2023-01-15T01:08:22;99322.19;;;8.38;100.00
68594;BME280;55563;52.416;13.548;2023-01-15T01:10:22;99320.41;;;8.33;100.00
68594;BME280;55563;52.416;13.548;2023-01-15T01:12:23;99315.34;;;8.42;100.00
68594;BME280;55563;52.416;13.548;2023-01-15T01:14:24;99317.00;;;8.32;100.00
68594;BME280;55563;52.416;13.548;2023-01-15T01:16:27;99310.88;;;8.42;100.00
68594;BME280;55563;52.416;13.548;2023-01-15T01:18:29;99306.47;;;8.38;100.00
68594;BME280;55563;52.416;13.548;2023-01-15T01:20:31;99308.81;;;8.39;100.00
68594;BME280;55563;52.416;13.548;2023-01-15T01:22:32;99300.47;;;8.37;100.00
68594;BME280;55563;52.416;13.548;2023-01-15T01:24:35;99311.72;;;8.38;100.00
68594;BME280;55563;52.416;13.548;2023-01-15T01:26:36;99302.63;;;8.54;100.00
68594;BME280;55563;52.416;13.548;2023-01-15T01:28:36;99304.56;;;8.48;100.00
68594;BME280;55563;52.416;13.548;2023-01-15T01:30:37;99302.88;;;8.57;100.00
68594;BME280;55563;52.416;13.548;2023-01-15T01:32:38;99306.59;;;8.51;100.00
68594;BME280;55563;52.416;13.548;2023-01-15T01:34:39;99311.63;;;8.48;100.00
68594;BME280;55563;52.416;13.548;2023-01-15T01:36:42;99330.41;;;8.55;100.00
68594;BME280;55563;52.416;13.548;2023-01-15T01:38:46;99313.81;;;8.64;100.00
68594;BME280;55563;52.416;13.548;2023-01-15T01:40:49;99315.88;;;8.67;100.00
68594;BME280;55563;52.416;13.548;2023-01-15T01:42:49;99319.81;;;8.65;100.00
68594;BME280;55563;52.416;13.548;2023-01-15T01:46:54;99310.28;;;8.74;100.00
68594;BME280;55563;52.416;13.548;2023-01-15T01:48:59;99284.16;;;8.69;100.00
68594;BME280;55563;52.416;13.548;2023-01-15T01:51:02;99287.72;;;8.78;100.00
68594;BME280;55563;52.416;13.548;2023-01-15T01:53:10;99288.59;;;8.68;100.00
68594;BME280;55563;52.416;13.548;2023-01-15T01:55:14;99298.50;;;8.77;100.00
68594;BME280;55563;52.416;13.548;2023-01-15T01:57:16;99298.31;;;8.68;100.00
68594;BME280;55563;52.416;13.548;2023-01-15T01:59:20;99295.41;;;8.69;100.00
68594;BME280;55563;52.416;13.548;2023-01-15T02:01:23;99300.44;;;8.66;100.00
68594;BME280;55563;52.416;13.548;2023-01-15T02:03:30;99294.47;;;8.60;100.00
68594;BME280;55563;52.416;13.548;2023-01-15T02:05:36;99295.03;;;8.57;100.00
68594;BME280;55563;52.416;13.548;2023-01-15T02:07:37;99300.28;;;8.57;100.00
68594;BME280;55563;52.416;13.548;2023-01-15T02:09:40;99303.94;;;8.56;100.00
68594;BME280;55563;52.416;13.548;2023-01-15T02:11:41;99301.31;;;8.56;100.00
68594;BME280;55563;52.416;13.548;2023-01-15T02:13:49;99305.78;;;8.56;100.00
68594;BME280;55563;52.416;13.548;2023-01-15T02:15:59;99319.19;;;8.49;100.00
68594;BME280;55563;52.416;13.548;2023-01-15T02:18:11;99300.81;;;8.54;100.00
68594;BME280;55563;52.416;13.548;2023-01-15T02:22:40;99304.78;;;8.52;100.00
68594;BME280;55563;52.416;13.548;2023-01-15T02:25:07;99293.72;;;8.55;100.00
68594;BME280;55563;52.416;13.548;2023-01-15T02:27:15;99298.28;;;8.44;100.00
68594;BME280;55563;52.416;13.548;2023-01-15T02:29:28;99301.69;;;8.45;100.00
68594;BME280;55563;52.416;13.548;2023-01-15T02:31:41;99305.91;;;8.41;100.00
68594;BME280;55563;52.416;13.548;2023-01-15T02:33:50;99309.88;;;8.38;100.00
68594;BME280;55563;52.416;13.548;2023-01-15T02:35:58;99314.56;;;8.41;100.00
68594;BME280;55563;52.416;13.548;2023-01-15T02:38:08;99309.09;;;8.38;100.00
68594;BME280;55563;52.416;13.548;2023-01-15T02:40:11;99309.63;;;8.35;100.00
68594;BME280;55563;52.416;13.548;2023-01-15T02:42:16;99306.00;;;8.30;100.00
68594;BME280;55563;52.416;13.548;2023-01-15T02:44:22;99304.16;;;8.31;100.00
68594;BME280;55563;52.416;13.548;2023-01-15T02:46:33;99296.84;;;8.28;100.00
68594;BME280;55563;52.416;13.548;2023-01-15T02:48:40;99282.19;;;8.27;100.00
68594;BME280;55563;52.416;13.548;2023-01-15T02:50:47;99295.53;;;8.25;100.00
68594;BME280;55563;52.416;13.548;2023-01-15T02:52:56;99290.09;;;8.22;100.00
68594;BME280;55563;52.416;13.548;2023-01-15T02:55:07;99295.84;;;8.24;100.00
68594;BME280;55563;52.416;13.548;2023-01-15T02:57:17;99294.28;;;8.23;100.00
68594;BME280;55563;52.416;13.548;2023-01-15T02:59:34;99289.88;;;8.18;100.00
68594;BME280;55563;52.416;13.548;2023-01-15T03:01:46;99295.09;;;8.18;100.00
68594;BME280;55563;52.416;13.548;2023-01-15T03:04:11;99294.06;;;8.19;100.00
68594;BME280;55563;52.416;13.548;2023-01-15T03:06:19;99297.94;;;8.22;100.00
68594;BME280;55563;52.416;13.548;2023-01-15T03:08:25;99294.84;;;8.20;100.00
68594;BME280;55563;52.416;13.548;2023-01-15T03:11:04;99294.84;;;8.20;100.00
68594;BME280;55563;52.416;13.548;2023-01-15T03:13:10;99296.38;;;8.21;100.00
68594;BME280;55563;52.416;13.548;2023-01-15T03:15:19;99294.53;;;8.21;100.00
68594;BME280;55563;52.416;13.548;2023-01-15T03:17:48;99292.22;;;8.20;100.00
68594;BME280;55563;52.416;13.548;2023-01-15T03:19:57;99291.13;;;8.21;100.00
68594;BME280;55563;52.416;13.548;2023-01-15T03:24:18;99286.97;;;8.20;100.00
68594;BME280;55563;52.416;13.548;2023-01-15T03:26:21;99289.88;;;8.18;100.00
68594;BME280;55563;52.416;13.548;2023-01-15T03:28:25;99291.97;;;8.16;100.00
68594;BME280;55563;52.416;13.548;2023-01-15T03:30:26;99288.56;;;8.16;100.00
68594;BME280;55563;52.416;13.548;2023-01-15T03:32:28;99282.53;;;8.15;100.00
68594;BME280;55563;52.416;13.548;2023-01-15T03:34:36;99279.19;;;8.15;100.00
68594;BME280;55563;52.416;13.548;2023-01-15T03:36:39;99285.47;;;8.14;100.00
68594;BME280;55563;52.416;13.548;2023-01-15T03:38:40;99286.25;;;8.14;100.00
68594;BME280;55563;52.416;13.548;2023-01-15T03:40:59;99280.22;;;8.14;100.00
68594;BME280;55563;52.416;13.548;2023-01-15T03:43:05;99283.63;;;8.14;100.00
68594;BME280;55563;52.416;13.548;2023-01-15T03:45:36;99279.19;;;8.15;100.00
68594;BME280;55563;52.416;13.548;2023-01-15T03:47:53;99291.97;;;8.16;100.00
68594;BME280;55563;52.416;13.548;2023-01-15T03:52:35;99290.13;;;8.17;100.00
68594;BME280;55563;52.416;13.548;2023-01-15T03:54:48;99287.50;;;8.17;100.00
68594;BME280;55563;52.416;13.548;2023-01-15T03:56:57;99295.38;;;8.17;100.00
68594;BME280;55563;52.416;13.548;2023-01-15T03:59:14;99298.75;;;8.17;100.00
68594;BME280;55563;52.416;13.548;2023-01-15T04:01:33;99299.56;;;8.18;100.00
68594;BME280;55563;52.416;13.548;2023-01-15T04:03:36;99303.22;;;8.17;100.00
68594;BME280;55563;52.416;13.548;2023-01-15T04:05:39;99303.72;;;8.19;100.00
68594;BME280;55563;52.416;13.548;2023-01-15T04:07:41;99306.09;;;8.15;100.00
68594;BME280;55563;52.416;13.548;2023-01-15T04:09:42;99305.34;;;8.15;100.00
68594;BME280;55563;52.416;13.548;2023-01-15T04:11:45;99307.97;;;8.15;100.00
68594;BME280;55563;52.416;13.548;2023-01-15T04:13:46;99299.06;;;8.11;100.00
68594;BME280;55563;52.416;13.548;2023-01-15T04:16:00;99298.81;;;8.12;100.00
68594;BME280;55563;52.416;13.548;2023-01-15T04:18:01;99309.00;;;8.14;100.00
68594;BME280;55563;52.416;13.548;2023-01-15T04:20:04;99308.22;;;8.13;100.00
68594;BME280;55563;52.416;13.548;2023-01-15T04:22:06;99313.47;;;8.13;100.00
68594;BME280;55563;52.416;13.548;2023-01-15T04:24:07;99314.25;;;8.14;100.00
68594;BME280;55563;52.416;13.548;2023-01-15T04:26:52;99311.63;;;8.14;100.00
68594;BME280;55563;52.416;13.548;2023-01-15T04:28:53;99309.50;;;8.16;100.00
68594;BME280;55563;52.416;13.548;2023-01-15T04:30:56;99338.06;;;8.12;100.00
68594;BME280;55563;52.416;13.548;2023-01-15T04:32:56;99376.81;;;8.10;100.00
68594;BME280;55563;52.416;13.548;2023-01-15T04:34:57;99375.06;;;8.01;100.00
68594;BME280;55563;52.416;13.548;2023-01-15T04:36:58;99389.91;;;7.61;100.00
68594;BME280;55563;52.416;13.548;2023-01-15T04:38:58;99384.56;;;7.32;100.00
68594;BME280;55563;52.416;13.548;2023-01-15T04:41:00;99380.38;;;7.31;100.00
68594;BME280;55563;52.416;13.548;2023-01-15T04:43:21;99380.41;;;7.21;100.00
68594;BME280;55563;52.416;13.548;2023-01-15T04:45:42;99359.81;;;7.10;100.00
68594;BME280;55563;52.416;13.548;2023-01-15T04:47:43;99362.94;;;7.07;100.00
68594;BME280;55563;52.416;13.548;2023-01-15T04:49:43;99384.88;;;7.00;100.00
68594;BME280;55563;52.416;13.548;2023-01-15T04:51:44;99381.25;;;6.91;100.00
68594;BME280;55563;52.416;13.548;2023-01-15T04:53:45;99393.28;;;6.92;100.00
68594;BME280;55563;52.416;13.548;2023-01-15T04:55:45;99389.63;;;6.83;100.00
68594;BME280;55563;52.416;13.548;2023-01-15T04:57:48;99394.38;;;6.71;100.00
68594;BME280;55563;52.416;13.548;2023-01-15T04:59:49;99406.09;;;6.79;100.00
68594;BME280;55563;52.416;13.548;2023-01-15T05:01:50;99415.25;;;6.56;100.00
68594;BME280;55563;52.416;13.548;2023-01-15T05:03:51;99404.53;;;6.57;100.00
68594;BME280;55563;52.416;13.548;2023-01-15T05:05:51;99403.00;;;6.51;100.00
68594;BME280;55563;52.416;13.548;2023-01-15T05:07:52;99406.38;;;6.52;100.00
68594;BME280;55563;52.416;13.548;2023-01-15T05:09:53;99405.84;;;6.40;100.00
68594;BME280;55563;52.416;13.548;2023-01-15T05:11:54;99425.69;;;6.36;100.00
68594;BME280;55563;52.416;13.548;2023-01-15T05:13:55;99421.00;;;6.33;100.00
68594;BME280;55563;52.416;13.548;2023-01-15T05:15:56;99416.03;;;6.26;100.00
68594;BME280;55563;52.416;13.548;2023-01-15T05:17:56;99425.41;;;6.22;100.00
68594;BME280;55563;52.416;13.548;2023-01-15T05:19:57;99425.13;;;6.24;100.00
68594;BME280;55563;52.416;13.548;2023-01-15T05:21:57;99420.69;;;6.14;100.00
68594;BME280;55563;52.416;13.548;2023-01-15T05:23:59;99414.94;;;6.07;100.00
68594;BME280;55563;52.416;13.548;2023-01-15T05:26:02;99412.59;;;6.00;100.00
68594;BME280;55563;52.416;13.548;2023-01-15T05:28:03;99415.38;;;5.79;100.00
68594;BME280;55563;52.416;13.548;2023-01-15T05:30:05;99422.69;;;5.82;100.00
68594;BME280;55563;52.416;13.548;2023-01-15T05:32:17;99424.75;;;5.75;100.00
68594;BME280;55563;52.416;13.548;2023-01-15T05:34:18;99424.50;;;5.81;100.00
68594;BME280;55563;52.416;13.548;2023-01-15T05:36:21;99415.38;;;5.79;100.00
68594;BME280;55563;52.416;13.548;2023-01-15T05:38:22;99416.94;;;5.75;100.00
68594;BME280;55563;52.416;13.548;2023-01-15T05:40:23;99429.97;;;5.75;100.00
68594;BME280;55563;52.416;13.548;2023-01-15T05:42:23;99442.97;;;5.69;100.00
68594;BME280;55563;52.416;13.548;2023-01-15T05:44:26;99438.81;;;5.68;100.00
68594;BME280;55563;52.416;13.548;2023-01-15T05:46:26;99433.81;;;5.62;100.00
68594;BME280;55563;52.416;13.548;2023-01-15T05:48:27;99429.13;;;5.59;100.00
68594;BME280;55563;52.416;13.548;2023-01-15T05:50:28;99420.00;;;5.61;100.00
68594;BME280;55563;52.416;13.548;2023-01-15T05:52:29;99434.88;;;5.66;100.00
68594;BME280;55563;52.416;13.548;2023-01-15T05:54:33;99441.88;;;5.55;100.00
68594;BME280;55563;52.416;13.548;2023-01-15T05:56:35;99437.72;;;5.59;100.00
68594;BME280;55563;52.416;13.548;2023-01-15T05:58:36;99440.59;;;5.63;100.00
68594;BME280;55563;52.416;13.548;2023-01-15T06:00:37;99445.53;;;5.54;100.00
68594;BME280;55563;52.416;13.548;2023-01-15T06:02:37;99446.53;;;5.48;100.00
68594;BME280;55563;52.416;13.548;2023-01-15T06:04:38;99450.47;;;5.51;100.00
68594;BME280;55563;52.416;13.548;2023-01-15T06:06:40;99434.84;;;5.51;100.00
68594;BME280;55563;52.416;13.548;2023-01-15T06:08:41;99436.34;;;5.47;100.00
68594;BME280;55563;52.416;13.548;2023-01-15T06:10:51;99429.31;;;5.47;100.00
68594;BME280;55563;52.416;13.548;2023-01-15T06:12:53;99440.03;;;5.51;100.00
68594;BME280;55563;52.416;13.548;2023-01-15T06:14:54;99436.38;;;5.52;100.00
68594;BME280;55563;52.416;13.548;2023-01-15T06:16:54;99436.13;;;5.53;100.00
68594;BME280;55563;52.416;13.548;2023-01-15T06:18:59;99425.94;;;5.52;100.00
68594;BME280;55563;52.416;13.548;2023-01-15T06:21:07;99414.19;;;5.39;100.00
68594;BME280;55563;52.416;13.548;2023-01-15T06:23:08;99413.94;;;5.41;100.00
68594;BME280;55563;52.416;13.548;2023-01-15T06:25:08;99427.53;;;5.53;100.00
68594;BME280;55563;52.416;13.548;2023-01-15T06:27:09;99425.44;;;5.50;100.00
68594;BME280;55563;52.416;13.548;2023-01-15T06:29:10;99433.22;;;5.40;100.00
68594;BME280;55563;52.416;13.548;2023-01-15T06:31:14;99434.78;;;5.41;100.00
68594;BME280;55563;52.416;13.548;2023-01-15T06:33:15;99432.63;;;5.33;100.00
68594;BME280;55563;52.416;13.548;2023-01-15T06:35:15;99426.69;;;5.42;100.00
68594;BME280;55563;52.416;13.548;2023-01-15T06:37:16;99441.19;;;5.18;100.00
68594;BME280;55563;52.416;13.548;2023-01-15T06:39:16;99448.06;;;5.39;100.00
68594;BME280;55563;52.416;13.548;2023-01-15T06:41:20;99453.47;;;5.33;100.00
68594;BME280;55563;52.416;13.548;2023-01-15T06:43:41;99446.69;;;5.26;100.00
68594;BME280;55563;52.416;13.548;2023-01-15T06:46:01;99454.75;;;5.25;100.00
68594;BME280;55563;52.416;13.548;2023-01-15T06:48:23;99455.56;;;5.31;100.00
68594;BME280;55563;52.416;13.548;2023-01-15T06:50:24;99463.88;;;5.22;100.00
68594;BME280;55563;52.416;13.548;2023-01-15T06:52:27;99458.16;;;5.25;100.00
68594;BME280;55563;52.416;13.548;2023-01-15T06:54:29;99451.34;;;5.24;100.00
68594;BME280;55563;52.416;13.548;2023-01-15T06:56:29;99456.94;;;5.01;100.00
68594;BME280;55563;52.416;13.548;2023-01-15T06:58:30;99454.94;;;5.08;100.00
68594;BME280;55563;52.416;13.548;2023-01-15T07:00:31;99451.50;;;5.03;100.00
68594;BME280;55563;52.416;13.548;2023-01-15T07:02:32;99455.84;;;4.92;100.00
68594;BME280;55563;52.416;13.548;2023-01-15T07:04:34;99449.63;;;4.93;100.00
68594;BME280;55563;52.416;13.548;2023-01-15T07:06:34;99456.75;;;5.08;100.00
68594;BME280;55563;52.416;13.548;2023-01-15T07:08:35;99450.28;;;5.15;100.00
68594;BME280;55563;52.416;13.548;2023-01-15T07:10:36;99450.50;;;5.14;100.00
68594;BME280;55563;52.416;13.548;2023-01-15T07:12:36;99454.63;;;5.05;100.00
68594;BME280;55563;52.416;13.548;2023-01-15T07:14:38;99463.97;;;5.01;100.00
68594;BME280;55563;52.416;13.548;2023-01-15T07:16:39;99467.31;;;4.96;100.00
68594;BME280;55563;52.416;13.548;2023-01-15T07:18:39;99468.41;;;5.00;100.00
68594;BME280;55563;52.416;13.548;2023-01-15T07:20:40;99473.63;;;5.05;100.00
68594;BME280;55563;52.416;13.548;2023-01-15T07:22:40;99481.38;;;4.95;100.00
68594;BME280;55563;52.416;13.548;2023-01-15T07:24:41;99471.72;;;4.91;100.00
68594;BME280;55563;52.416;13.548;2023-01-15T07:26:42;99478.53;;;4.97;100.00
68594;BME280;55563;52.416;13.548;2023-01-15T07:28:42;99486.06;;;4.93;100.00
68594;BME280;55563;52.416;13.548;2023-01-15T07:30:43;99475.06;;;4.86;100.00
68594;BME280;55563;52.416;13.548;2023-01-15T07:32:44;99473.00;;;4.88;100.00
68594;BME280;55563;52.416;13.548;2023-01-15T07:34:44;99482.34;;;4.84;100.00
68594;BME280;55563;52.416;13.548;2023-01-15T07:36:45;99476.94;;;4.96;100.00
68594;BME280;55563;52.416;13.548;2023-01-15T07:38:46;99486.59;;;4.95;100.00
68594;BME280;55563;52.416;13.548;2023-01-15T07:40:46;99497.00;;;4.95;100.00
68594;BME280;55563;52.416;13.548;2023-01-15T07:43:07;99486.84;;;4.94;100.00
68594;BME280;55563;52.416;13.548;2023-01-15T07:45:28;99483.94;;;4.90;100.00
68594;BME280;55563;52.416;13.548;2023-01-15T07:47:49;99477.19;;;4.89;100.00
68594;BME280;55563;52.416;13.548;2023-01-15T07:50:13;99482.16;;;4.96;100.00
68594;BME280;55563;52.416;13.548;2023-01-15T07:52:17;99485.00;;;4.89;100.00
68594;BME280;55563;52.416;13.548;2023-01-15T07:54:18;99489.41;;;4.89;100.00
68594;BME280;55563;52.416;13.548;2023-01-15T07:56:19;99498.78;;;4.90;100.00
68594;BME280;55563;52.416;13.548;2023-01-15T07:58:19;99502.91;;;4.86;100.00
68594;BME280;55563;52.416;13.548;2023-01-15T08:00:22;99507.41;;;4.95;100.00
68594;BME280;55563;52.416;13.548;2023-01-15T08:02:24;99505.88;;;4.99;100.00
68594;BME280;55563;52.416;13.548;2023-01-15T08:04:24;99501.97;;;4.97;100.00
68594;BME280;55563;52.416;13.548;2023-01-15T08:06:25;99503.50;;;4.93;100.00
68594;BME280;55563;52.416;13.548;2023-01-15T08:08:26;99511.59;;;4.96;100.00
68594;BME280;55563;52.416;13.548;2023-01-15T08:10:26;99507.38;;;4.90;100.00
68594;BME280;55563;52.416;13.548;2023-01-15T08:12:27;99512.88;;;4.94;100.00
68594;BME280;55563;52.416;13.548;2023-01-15T08:14:47;99510.00;;;4.95;100.00
68594;BME280;55563;52.416;13.548;2023-01-15T08:17:08;99500.09;;;4.92;100.00
68594;BME280;55563;52.416;13.548;2023-01-15T08:19:08;99488.88;;;4.87;100.00
68594;BME280;55563;52.416;13.548;2023-01-15T08:21:13;99488.34;;;4.90;100.00
68594;BME280;55563;52.416;13.548;2023-01-15T08:23:14;99470.91;;;4.90;100.00
68594;BME280;55563;52.416;13.548;2023-01-15T08:25:18;99479.78;;;4.89;100.00
68594;BME280;55563;52.416;13.548;2023-01-15T08:27:19;99476.91;;;4.91;100.00
68594;BME280;55563;52.416;13.548;2023-01-15T08:29:20;99475.94;;;4.97;100.00
68594;BME280;55563;52.416;13.548;2023-01-15T08:31:21;99481.66;;;4.94;100.00
68594;BME280;55563;52.416;13.548;2023-01-15T08:33:22;99486.53;;;4.90;100.00
68594;BME280;55563;52.416;13.548;2023-01-15T08:35:22;99495.41;;;4.94;100.00
68594;BME280;55563;52.416;13.548;2023-01-15T08:37:23;99492.81;;;4.94;100.00
68594;BME280;55563;52.416;13.548;2023-01-15T08:39:25;99494.94;;;4.97;100.00
68594;BME280;55563;52.416;13.548;2023-01-15T08:41:26;99492.34;;;4.97;100.00
68594;BME280;55563;52.416;13.548;2023-01-15T08:43:29;99488.75;;;5.03;100.00
68594;BME280;55563;52.416;13.548;2023-01-15T08:45:30;99487.19;;;5.07;100.00
68594;BME280;55563;52.416;13.548;2023-01-15T08:47:31;99489.03;;;5.07;100.00
68594;BME280;55563;52.416;13.548;2023-01-15T08:49:31;99491.91;;;5.10;100.00
68594;BME280;55563;52.416;13.548;2023-01-15T08:51:32;99486.19;;;5.08;100.00
68594;BME280;55563;52.416;13.548;2023-01-15T08:53:34;99490.31;;;5.09;100.00
68594;BME280;55563;52.416;13.548;2023-01-15T08:55:36;99488.53;;;5.15;100.00
68594;BME280;55563;52.416;13.548;2023-01-15T08:57:36;99489.88;;;5.17;100.00
68594;BME280;55563;52.416;13.548;2023-01-15T08:59:37;99478.41;;;5.18;100.00
68594;BME280;55563;52.416;13.548;2023-01-15T09:01:38;99484.41;;;5.19;100.00
68594;BME280;55563;52.416;13.548;2023-01-15T09:03:41;99479.16;;;5.14;100.00
68594;BME280;55563;52.416;13.548;2023-01-15T09:05:42;99482.53;;;5.14;100.00
68594;BME280;55563;52.416;13.548;2023-01-15T09:07:42;99494.56;;;5.20;100.00
68594;BME280;55563;52.416;13.548;2023-01-15T09:09:43;99498.50;;;5.23;100.00
68594;BME280;55563;52.416;13.548;2023-01-15T09:11:44;99503.97;;;5.21;100.00
68594;BME280;55563;52.416;13.548;2023-01-15T09:13:45;99515.13;;;5.17;100.00
68594;BME280;55563;52.416;13.548;2023-01-15T09:15:47;99517.78;;;5.22;100.00
68594;BME280;55563;52.416;13.548;2023-01-15T09:17:48;99508.66;;;5.24;100.00
68594;BME280;55563;52.416;13.548;2023-01-15T09:19:48;99512.84;;;5.25;100.00
68594;BME280;55563;52.416;13.548;2023-01-15T09:21:49;99507.91;;;5.29;100.00
68594;BME280;55563;52.416;13.548;2023-01-15T09:23:49;99504.53;;;5.28;100.00
68594;BME280;55563;52.416;13.548;2023-01-15T09:25:53;99510.03;;;5.32;100.00
68594;BME280;55563;52.416;13.548;2023-01-15T09:27:55;99518.38;;;5.34;100.00
68594;BME280;55563;52.416;13.548;2023-01-15T09:29:55;99514.41;;;5.26;100.00
68594;BME280;55563;52.416;13.548;2023-01-15T09:31:56;99523.28;;;5.72;100.00
68594;BME280;55563;52.416;13.548;2023-01-15T09:33:57;99527.97;;;5.70;100.00
68594;BME280;55563;52.416;13.548;2023-01-15T09:35:58;99514.59;;;5.57;100.00
68594;BME280;55563;52.416;13.548;2023-01-15T09:37:59;99518.56;;;5.69;100.00
68594;BME280;55563;52.416;13.548;2023-01-15T09:39:59;99521.47;;;5.73;100.00
68594;BME280;55563;52.416;13.548;2023-01-15T09:42:24;99514.78;;;5.87;100.00
68594;BME280;55563;52.416;13.548;2023-01-15T09:44:36;99514.78;;;5.92;100.00
68594;BME280;55563;52.416;13.548;2023-01-15T09:51:45;99528.88;;;5.91;100.00
68594;BME280;55563;52.416;13.548;2023-01-15T09:54:13;99524.47;;;5.97;100.00
68594;BME280;55563;52.416;13.548;2023-01-15T09:56:23;99523.22;;;6.14;100.00
68594;BME280;55563;52.416;13.548;2023-01-15T09:58:32;99512.44;;;5.91;100.00
68594;BME280;55563;52.416;13.548;2023-01-15T10:00:39;99514.19;;;5.80;100.00
68594;BME280;55563;52.416;13.548;2023-01-15T10:02:48;99519.19;;;5.87;100.00
68594;BME280;55563;52.416;13.548;2023-01-15T10:04:53;99525.50;;;5.96;100.00
68594;BME280;55563;52.416;13.548;2023-01-15T10:07:21;99537.25;;;5.98;100.00
68594;BME280;55563;52.416;13.548;2023-01-15T10:09:30;99534.38;;;6.00;100.00
68594;BME280;55563;52.416;13.548;2023-01-15T10:11:41;99524.97;;;5.94;100.00
68594;BME280;55563;52.416;13.548;2023-01-15T10:14:08;99528.69;;;6.08;100.00
68594;BME280;55563;52.416;13.548;2023-01-15T10:16:21;99521.09;;;6.06;100.00
68594;BME280;55563;52.416;13.548;2023-01-15T10:18:24;99524.50;;;6.07;100.00
68594;BME280;55563;52.416;13.548;2023-01-15T10:25:39;99508.38;;;6.20;100.00
68594;BME280;55563;52.416;13.548;2023-01-15T10:27:46;99502.06;;;6.06;100.00
68594;BME280;55563;52.416;13.548;2023-01-15T10:29:54;99505.22;;;6.08;100.00
68594;BME280;55563;52.416;13.548;2023-01-15T10:36:49;99512.00;;;6.14;100.00
68594;BME280;55563;52.416;13.548;2023-01-15T10:39:02;99518.28;;;6.18;100.00
68594;BME280;55563;52.416;13.548;2023-01-15T10:41:32;99520.38;;;6.21;100.00
68594;BME280;55563;52.416;13.548;2023-01-15T10:43:53;99513.56;;;6.15;100.00
68594;BME280;55563;52.416;13.548;2023-01-15T10:45:57;99506.53;;;6.21;100.00
68594;BME280;55563;52.416;13.548;2023-01-15T10:48:04;99507.88;;;6.28;100.00
68594;BME280;55563;52.416;13.548;2023-01-15T10:50:17;99510.75;;;6.27;100.00
68594;BME280;55563;52.416;13.548;2023-01-15T10:52:30;99524.81;;;6.26;100.00
68594;BME280;55563;52.416;13.548;2023-01-15T10:54:34;99511.53;;;6.27;100.00
68594;BME280;55563;52.416;13.548;2023-01-15T10:56:49;99513.38;;;6.32;100.00
68594;BME280;55563;52.416;13.548;2023-01-15T10:59:07;99514.16;;;6.37;100.00
68594;BME280;55563;52.416;13.548;2023-01-15T11:01:15;99512.31;;;6.33;100.00
68594;BME280;55563;52.416;13.548;2023-01-15T11:03:21;99514.94;;;6.33;100.00
68594;BME280;55563;52.416;13.548;2023-01-15T11:05:23;99518.31;;;6.28;100.00
68594;BME280;55563;52.416;13.548;2023-01-15T11:07:37;99517.78;;;6.31;100.00
68594;BME280;55563;52.416;13.548;2023-01-15T11:09:40;99523.81;;;6.32;100.00
68594;BME280;55563;52.416;13.548;2023-01-15T11:11:45;99531.09;;;6.30;100.00
68594;BME280;55563;52.416;13.548;2023-01-15T11:14:15;99517.81;;;6.36;100.00
68594;BME280;55563;52.416;13.548;2023-01-15T11:16:36;99522.75;;;6.43;100.00
68594;BME280;55563;52.416;13.548;2023-01-15T11:19:00;99528.00;;;6.53;100.00